Date,TemperatureHighF,TemperatureAvgF,TemperatureLowF,DewpointHighF,DewpointAvgF,DewpointLowF,HumidityHigh,HumidityAvg,HumidityLow,PressureMaxIn,PressureMinIn,WindSpeedMaxMPH,WindSpeedAvgMPH,GustSpeedMaxMPH,PrecipitationSumIn
2013-11-1,71.4,56.6,38.3,25.4,19.4,11.0,39,24,17,30.07,29.98,9,3,0,0.00
2013-11-2,74.1,60.3,44.6,22.6,18.8,15.8,33,21,13,30.05,29.87,11,4,0,0.00
2013-11-3,72.1,59.0,46.2,52.8,42.8,26.7,88,56,28,29.89,29.72,17,4,0,0.04
2013-11-4,71.6,57.6,44.2,45.2,40.5,36.4,83,55,33,29.79,29.66,14,5,0,0.00
2013-11-5,65.8,54.2,43.0,44.1,37.4,32.2,86,55,30,30.05,29.76,14,4,0,0.00
2013-11-6,65.5,52.1,36.0,36.5,25.2,15.1,88,40,20,30.19,30.04,10,4,0,0.00
2013-11-7,70.3,54.6,39.0,30.7,23.3,12.0,46,30,22,30.19,30.05,14,4,0,0.00
2013-11-8,73.2,62.0,47.8,36.8,33.7,28.6,48,36,24,30.07,29.92,8,3,0,0.00
2013-11-9,74.5,59.7,45.7,38.0,33.2,29.8,55,38,25,30.07,29.98,9,2,0,0.00
2013-11-10,76.3,63.6,48.9,40.8,34.0,30.6,49,34,23,30.09,29.99,10,4,0,0.00
2013-11-11,77.9,66.0,52.3,41.3,38.4,35.0,54,38,25,30.06,29.96,8,3,0,0.00
2013-11-12,73.0,62.8,49.6,46.0,42.2,36.0,67,48,35,30.21,30.11,19,9,0,0.00
2013-11-13,66.7,53.8,42.4,43.0,40.5,38.0,84,62,42,30.21,30.00,11,4,0,0.00
2013-11-14,74.7,59.8,47.8,44.0,33.8,26.0,73,41,21,30.00,29.83,9,3,0,0.00
2013-11-15,65.8,58.0,50.0,50.0,44.5,33.0,84,62,45,29.84,29.61,21,8,0,0.00
2013-11-16,68.2,57.4,46.4,47.0,41.8,35.0,88,58,30,29.84,29.65,18,8,0,0.00
2013-11-17,68.7,55.3,43.3,45.0,41.8,37.0,99,65,35,30.01,29.83,15,4,0,0.00
2013-11-18,71.6,57.8,48.0,50.0,41.1,30.0,92,57,26,30.04,29.91,13,3,0,0.00
2013-11-19,73.2,58.3,44.8,42.0,34.8,24.0,70,45,17,29.97,29.77,13,4,0,0.00
2013-11-20,72.3,57.2,45.1,41.0,33.3,25.0,64,43,18,29.85,29.72,15,4,0,0.00
2013-11-21,67.1,52.5,42.4,44.0,38.8,33.0,77,61,42,29.89,29.81,12,4,0,0.00
2013-11-22,61.0,53.5,41.7,54.0,45.2,39.0,99,75,55,29.89,29.80,21,9,0,0.01
2013-11-23,41.9,38.8,36.5,40.0,37.9,36.2,99,97,89,29.95,29.87,15,8,0,0.33
2013-11-24,46.8,38.1,31.3,40.7,35.9,31.1,99,92,74,30.00,29.92,10,4,0,0.02
2013-11-25,52.2,39.2,27.5,38.3,32.9,27.3,99,80,51,30.09,29.94,9,3,0,0.00
2013-11-26,54.3,43.1,31.3,32.4,27.9,21.4,89,56,37,30.18,30.07,14,6,0,0.00
2013-11-27,52.3,41.9,33.3,25.4,22.5,20.7,65,47,33,30.12,29.94,10,5,0,0.00
2013-11-28,60.6,47.2,33.6,35.1,28.2,20.4,70,49,34,30.04,29.92,11,4,0,0.00
2013-11-29,64.9,51.8,40.6,39.7,36.0,31.6,72,56,38,30.10,30.00,10,3,0,0.00
2013-11-30,65.7,53.7,44.4,39.0,36.9,35.7,72,55,36,30.11,29.99,7,2,0,0.00